createdAt,value
2023-03-05T00:00:23.922Z,25.05
2023-03-05T00:02:51.199Z,27.67
2023-03-05T00:05:18.124Z,28.30
2023-03-05T00:07:44.899Z,29.13
2023-03-05T00:10:11.898Z,32.40
2023-03-05T00:12:38.663Z,29.33
2023-03-05T00:15:05.678Z,26.98
2023-03-05T00:17:32.445Z,26.65
2023-03-05T00:20:01.292Z,28.45
2023-03-05T00:22:28.913Z,28.42
2023-03-05T00:24:55.656Z,28.35
2023-03-05T00:27:22.328Z,29.08
2023-03-05T00:29:49.037Z,29.00
2023-03-05T00:32:15.865Z,27.02
2023-03-05T00:34:42.637Z,26.13
2023-03-05T00:37:09.419Z,24.48
2023-03-05T00:39:36.158Z,27.35
2023-03-05T00:42:04.079Z,26.15
2023-03-05T00:44:30.828Z,27.25
2023-03-05T00:46:57.668Z,26.00
2023-03-05T00:49:24.473Z,25.02
2023-03-05T00:51:51.468Z,28.20
2023-03-05T00:54:18.240Z,28.05
2023-03-05T00:56:45.083Z,25.98
2023-03-05T00:59:11.989Z,25.92
2023-03-05T01:01:39.507Z,25.40
2023-03-05T01:04:06.495Z,26.90
2023-03-05T01:06:33.275Z,27.13
2023-03-05T01:08:59.974Z,27.90
2023-03-05T01:11:26.702Z,29.00
2023-03-05T01:13:53.437Z,28.60
2023-03-05T01:16:20.281Z,26.33
2023-03-05T01:18:47.010Z,26.67
2023-03-05T01:21:13.847Z,26.30
2023-03-05T01:23:40.514Z,26.33
2023-03-05T01:26:08.541Z,27.10
2023-03-05T01:28:35.435Z,24.88
2023-03-05T01:31:02.263Z,25.35
2023-03-05T01:33:29.229Z,24.48
2023-03-05T01:35:56.673Z,26.52
2023-03-05T01:38:23.669Z,25.85
2023-03-05T01:40:51.035Z,24.65
2023-03-05T01:43:25.459Z,29.45
2023-03-05T01:46:11.006Z,25.38
2023-03-05T01:48:38.338Z,24.45
2023-03-05T01:51:05.367Z,25.25
2023-03-05T01:53:33.050Z,23.60
2023-03-05T01:55:59.922Z,24.10
2023-03-05T01:58:26.929Z,27.42
2023-03-05T02:00:55.168Z,26.60
2023-03-05T02:03:23.148Z,26.58
2023-03-05T02:05:50.243Z,26.35
2023-03-05T02:08:18.405Z,25.67
2023-03-05T02:10:46.680Z,26.08
2023-03-05T02:13:14.781Z,27.10
2023-03-05T02:15:42.041Z,26.27
2023-03-05T02:18:09.885Z,24.83
2023-03-05T02:20:44.245Z,26.80
2023-03-05T02:23:11.083Z,25.27
2023-03-05T02:25:37.851Z,21.52
2023-03-05T02:28:09.365Z,24.17
2023-03-05T02:30:37.439Z,22.05
2023-03-05T02:33:04.808Z,20.20
2023-03-05T02:35:32.729Z,22.00
2023-03-05T02:37:59.894Z,22.05
2023-03-05T02:40:26.707Z,20.88
2023-03-05T02:42:53.521Z,23.48
2023-03-05T02:45:20.549Z,21.73
2023-03-05T02:47:47.393Z,19.30
2023-03-05T02:50:14.962Z,19.13
2023-03-05T02:52:42.000Z,18.38
2023-03-05T02:55:13.219Z,18.30
2023-03-05T02:57:40.932Z,19.52
2023-03-05T03:00:08.548Z,30.02
2023-03-05T03:02:35.905Z,17.45
2023-03-05T03:05:02.993Z,17.48
2023-03-05T03:07:29.973Z,18.85
2023-03-05T03:09:56.772Z,17.15
2023-03-05T03:12:23.477Z,17.17
2023-03-05T03:14:50.583Z,17.98
2023-03-05T03:17:18.999Z,18.98
2023-03-05T03:19:46.154Z,19.50
2023-03-05T03:22:13.603Z,20.17
2023-03-05T03:24:41.328Z,24.10
2023-03-05T03:27:08.293Z,22.88
2023-03-05T03:29:35.612Z,24.73
2023-03-05T03:32:02.374Z,24.05
2023-03-05T03:34:29.128Z,24.92
2023-03-05T03:36:59.332Z,24.58
2023-03-05T03:39:26.543Z,24.38
2023-03-05T03:41:53.633Z,24.40
2023-03-05T03:44:21.412Z,22.33
2023-03-05T03:46:50.072Z,19.83
2023-03-05T03:49:19.217Z,19.48
2023-03-05T03:51:46.394Z,20.63
2023-03-05T03:54:13.836Z,20.92
2023-03-05T03:56:40.656Z,19.42
2023-03-05T03:59:07.587Z,19.83
2023-03-05T04:01:34.253Z,19.15
2023-03-05T04:04:01.146Z,19.65
2023-03-05T04:06:27.930Z,19.33
2023-03-05T04:08:54.794Z,18.85
2023-03-05T04:11:21.605Z,18.10
2023-03-05T04:13:48.706Z,17.23
2023-03-05T04:16:15.818Z,16.70
2023-03-05T04:18:43.126Z,18.58
2023-03-05T04:21:09.919Z,19.05
2023-03-05T04:23:36.792Z,19.02
2023-03-05T04:26:04.105Z,18.05
2023-03-05T04:28:31.018Z,16.85
2023-03-05T04:30:57.928Z,16.85
2023-03-05T04:33:24.805Z,17.10
2023-03-05T04:35:51.794Z,16.70
2023-03-05T04:38:18.551Z,14.98
2023-03-05T04:40:45.885Z,17.38
2023-03-05T04:43:12.682Z,16.10
2023-03-05T04:45:40.335Z,17.63
2023-03-05T04:48:07.355Z,18.05
2023-03-05T04:50:34.070Z,17.73
2023-03-05T04:53:00.789Z,18.00
2023-03-05T04:55:27.539Z,16.73
2023-03-05T04:57:54.333Z,17.35
2023-03-05T05:00:21.806Z,16.10
2023-03-05T05:02:49.494Z,17.65
2023-03-05T05:05:17.577Z,16.67
2023-03-05T05:07:44.918Z,18.92
2023-03-05T05:10:12.667Z,17.58
2023-03-05T05:12:42.459Z,17.13
2023-03-05T05:15:09.968Z,15.98
2023-03-05T05:17:36.743Z,15.45
2023-03-05T05:20:06.631Z,16.00
2023-03-05T05:22:34.014Z,15.50
2023-03-05T05:25:00.930Z,16.20
2023-03-05T05:27:27.820Z,16.75
2023-03-05T05:29:54.586Z,15.57
2023-03-05T05:32:22.514Z,16.35
2023-03-05T05:34:49.921Z,16.85
2023-03-05T05:37:16.711Z,15.45
2023-03-05T05:39:50.067Z,16.20
2023-03-05T05:42:18.424Z,16.50
2023-03-05T05:44:45.223Z,18.00
2023-03-05T05:47:12.014Z,19.30
2023-03-05T05:49:38.777Z,17.85
2023-03-05T05:52:05.713Z,19.83
2023-03-05T05:54:32.483Z,20.75
2023-03-05T05:56:59.494Z,20.52
2023-03-05T05:59:26.803Z,20.00
2023-03-05T06:01:53.796Z,19.58
2023-03-05T06:04:20.748Z,18.88
2023-03-05T06:06:47.482Z,19.45
2023-03-05T06:09:14.984Z,18.48
2023-03-05T06:11:42.300Z,20.00
2023-03-05T06:14:10.754Z,17.67
2023-03-05T06:16:37.575Z,18.40
2023-03-05T06:19:04.749Z,16.85
2023-03-05T06:21:32.027Z,17.95
2023-03-05T06:23:58.834Z,16.98
2023-03-05T06:26:25.796Z,16.70
2023-03-05T06:28:52.597Z,16.42
2023-03-05T06:31:22.080Z,14.63
2023-03-05T06:33:49.469Z,14.60
2023-03-05T06:36:17.434Z,15.25
2023-03-05T06:38:44.582Z,16.88
2023-03-05T06:41:13.157Z,17.48
2023-03-05T06:43:41.492Z,16.80
2023-03-05T06:46:16.752Z,17.92
2023-03-05T06:48:43.981Z,18.27
2023-03-05T06:51:18.845Z,22.63
2023-03-05T06:53:48.980Z,20.35
2023-03-05T06:56:16.889Z,25.40
2023-03-05T06:58:46.175Z,29.35
2023-03-05T07:01:14.514Z,23.10
2023-03-05T07:03:42.765Z,20.00
2023-03-05T07:06:11.235Z,16.92
2023-03-05T07:08:39.100Z,19.02
2023-03-05T07:11:13.118Z,19.10
2023-03-05T07:13:40.167Z,18.45
2023-03-05T07:16:08.055Z,18.92
2023-03-05T07:18:35.351Z,19.60
2023-03-05T07:21:06.236Z,22.20
2023-03-05T07:23:34.090Z,21.42
2023-03-05T07:26:04.728Z,22.63
2023-03-05T07:28:32.253Z,24.13
2023-03-05T07:31:00.640Z,25.00
2023-03-05T07:33:28.400Z,39.17
2023-03-05T07:35:55.998Z,35.42
2023-03-05T07:39:33.555Z,37.17
2023-03-05T07:49:28.662Z,40.60
2023-03-05T08:04:54.671Z,42.60
2023-03-05T08:22:00.668Z,40.50
2023-03-05T08:24:31.616Z,41.22
2023-03-05T08:26:58.901Z,39.97
2023-03-05T08:29:26.327Z,39.55
2023-03-05T08:31:53.729Z,38.95
2023-03-05T08:34:21.300Z,45.47
2023-03-05T08:36:48.172Z,44.42
2023-03-05T08:39:16.511Z,47.38
2023-03-05T08:41:43.608Z,47.28
2023-03-05T08:44:11.092Z,48.10
2023-03-05T08:46:44.404Z,46.92
2023-03-05T08:49:41.289Z,48.13
2023-03-05T09:16:11.485Z,49.85
2023-03-05T09:18:40.201Z,52.85
2023-03-05T09:21:08.146Z,52.50
2023-03-05T09:23:35.756Z,55.72
2023-03-05T09:26:05.220Z,52.58
2023-03-05T09:28:32.610Z,53.38
2023-03-05T09:31:02.186Z,54.60
2023-03-05T09:33:29.396Z,51.67
2023-03-05T09:35:56.355Z,52.03
2023-03-05T09:38:23.434Z,52.55
2023-03-05T09:40:56.618Z,47.17
2023-03-05T09:43:29.011Z,46.25
2023-03-05T09:46:05.677Z,47.72
2023-03-05T09:48:33.199Z,47.10
2023-03-05T09:51:02.037Z,44.42
2023-03-05T09:53:47.510Z,38.28
2023-03-05T09:56:22.596Z,36.25
2023-03-05T09:58:53.637Z,36.47
2023-03-05T10:01:27.143Z,35.80
2023-03-05T10:03:54.851Z,34.72
2023-03-05T10:06:30.863Z,33.20
2023-03-05T10:09:02.236Z,33.70
2023-03-05T10:11:35.399Z,29.63
2023-03-05T10:14:03.986Z,32.38
2023-03-05T10:17:01.892Z,32.63
2023-03-05T10:19:38.380Z,31.33
2023-03-05T10:22:32.376Z,31.55
2023-03-05T10:25:11.498Z,32.95
2023-03-05T10:27:52.574Z,31.13
2023-03-05T10:35:18.636Z,31.00
2023-03-05T10:39:40.201Z,31.00
2023-03-05T10:43:12.396Z,31.77
2023-03-05T10:45:41.826Z,30.48
2023-03-05T10:48:15.674Z,30.98
2023-03-05T10:50:44.791Z,30.67
2023-03-05T10:53:30.096Z,30.27
2023-03-05T10:56:00.817Z,28.15
2023-03-05T10:58:28.586Z,28.13
2023-03-05T11:01:11.144Z,28.45
2023-03-05T11:03:52.467Z,27.98
2023-03-05T11:06:29.954Z,28.42
2023-03-05T11:09:14.940Z,28.33
2023-03-05T11:11:41.941Z,29.10
2023-03-05T11:14:23.982Z,29.75
2023-03-05T11:16:52.547Z,29.42
2023-03-05T11:19:20.831Z,31.80
2023-03-05T11:22:05.623Z,30.35
2023-03-05T11:24:33.817Z,28.83
2023-03-05T11:27:00.930Z,31.00
2023-03-05T11:29:30.199Z,29.80
2023-03-05T11:32:15.114Z,29.50
2023-03-05T11:34:42.343Z,31.58
2023-03-05T11:37:20.614Z,36.10
2023-03-05T11:39:48.954Z,34.58
2023-03-05T11:42:25.048Z,30.92
2023-03-05T11:45:12.919Z,30.83
2023-03-05T11:47:44.236Z,33.53
2023-03-05T11:50:30.920Z,33.88
2023-03-05T11:53:00.769Z,35.38
2023-03-05T11:55:33.241Z,31.60
2023-03-05T11:58:09.852Z,34.45
2023-03-05T12:00:43.223Z,36.92
2023-03-05T12:03:19.095Z,37.15
2023-03-05T12:05:50.690Z,39.08
2023-03-05T12:08:21.661Z,41.22
2023-03-05T12:10:48.851Z,41.65
2023-03-05T12:13:29.020Z,38.53
2023-03-05T12:16:03.246Z,48.22
2023-03-05T12:18:38.263Z,47.45
2023-03-05T12:21:15.722Z,47.63
2023-03-05T12:23:47.510Z,48.75
2023-03-05T12:26:14.640Z,51.28
2023-03-05T12:28:49.956Z,55.60
2023-03-05T12:31:38.099Z,54.15
2023-03-05T12:34:31.432Z,53.40
2023-03-05T12:36:58.596Z,53.37
2023-03-05T12:39:45.024Z,50.92
2023-03-05T12:42:44.986Z,48.72
2023-03-05T12:45:12.372Z,46.80
2023-03-05T12:47:40.637Z,49.47
2023-03-05T12:50:26.365Z,47.35
2023-03-05T12:53:23.928Z,49.20
2023-03-05T12:56:00.526Z,51.03
2023-03-05T12:58:51.814Z,46.78
2023-03-05T13:01:34.162Z,46.08
2023-03-05T13:04:11.201Z,45.42
2023-03-05T13:06:38.965Z,45.92
2023-03-05T13:09:19.461Z,44.00
2023-03-05T13:12:23.579Z,46.38
2023-03-05T13:15:14.422Z,46.05
2023-03-05T13:17:44.771Z,46.28
2023-03-05T13:20:25.926Z,45.90
2023-03-05T13:23:08.279Z,47.67
2023-03-05T13:25:37.668Z,47.03
2023-03-05T13:28:14.495Z,44.63
2023-03-05T13:30:54.965Z,45.88
2023-03-05T13:33:35.751Z,46.58
2023-03-05T13:36:04.031Z,44.00
2023-03-05T13:38:40.406Z,45.80
2023-03-05T13:41:16.880Z,45.75
2023-03-05T13:43:50.679Z,45.10
2023-03-05T13:46:25.103Z,44.53
2023-03-05T13:49:23.749Z,43.33
2023-03-05T13:51:53.546Z,42.78
2023-03-05T13:54:21.293Z,41.38
2023-03-05T13:57:02.969Z,42.65
2023-03-05T13:59:33.716Z,39.50
2023-03-05T14:02:23.951Z,42.15
2023-03-05T14:04:50.947Z,38.42
2023-03-05T14:07:18.508Z,35.83
2023-03-05T14:09:50.481Z,37.60
2023-03-05T14:12:32.796Z,36.25
2023-03-05T14:15:03.583Z,40.65
2023-03-05T14:17:32.949Z,40.20
2023-03-05T14:20:07.908Z,42.00
2023-03-05T14:22:36.248Z,43.97
2023-03-05T14:25:06.748Z,41.97
2023-03-05T14:27:35.736Z,41.75
2023-03-05T14:30:04.599Z,41.88
2023-03-05T14:32:33.328Z,41.08
2023-03-05T14:35:01.343Z,41.70
2023-03-05T14:37:31.405Z,39.88
2023-03-05T14:40:08.261Z,38.80
2023-03-05T14:42:50.538Z,38.42
2023-03-05T14:45:19.522Z,39.17
2023-03-05T14:47:46.713Z,39.58
2023-03-05T14:50:17.567Z,39.95
2023-03-05T14:52:45.284Z,39.20
2023-03-05T14:55:19.912Z,38.58
2023-03-05T14:57:47.813Z,37.65
2023-03-05T15:00:19.919Z,37.72
2023-03-05T15:02:47.203Z,39.13
2023-03-05T15:05:14.744Z,40.40
2023-03-05T15:07:42.048Z,39.50
2023-03-05T15:10:09.346Z,41.30
2023-03-05T15:12:36.485Z,39.28
2023-03-05T15:15:05.381Z,39.03
2023-03-05T15:17:35.237Z,37.90
2023-03-05T15:20:06.174Z,39.65
2023-03-05T15:22:33.723Z,38.05
2023-03-05T15:25:01.239Z,41.80
2023-03-05T15:27:28.321Z,38.80
2023-03-05T15:29:55.466Z,35.72
2023-03-05T15:32:22.429Z,36.47
2023-03-05T15:34:49.364Z,36.45
2023-03-05T15:37:16.449Z,36.03
2023-03-05T15:39:43.398Z,37.35
2023-03-05T15:42:10.301Z,37.30
2023-03-05T15:44:39.285Z,35.83
2023-03-05T15:47:07.036Z,36.47
2023-03-05T15:49:34.245Z,36.17
2023-03-05T15:52:01.373Z,36.50
2023-03-05T15:54:28.462Z,34.88
2023-03-05T15:56:55.534Z,34.00
2023-03-05T15:59:49.284Z,36.40
2023-03-05T16:02:16.474Z,36.85
2023-03-05T16:04:43.401Z,34.38
2023-03-05T16:07:10.358Z,34.50
2023-03-05T16:09:39.183Z,34.05
2023-03-05T16:12:08.584Z,34.17
2023-03-05T16:14:38.498Z,34.05
2023-03-05T16:17:06.293Z,32.97
2023-03-05T16:19:35.382Z,35.30
2023-03-05T16:22:02.523Z,34.47
2023-03-05T16:24:29.793Z,32.83
2023-03-05T16:26:57.011Z,34.13
2023-03-05T16:29:26.137Z,34.97
2023-03-05T16:31:53.072Z,35.17
2023-03-05T16:34:20.368Z,35.42
2023-03-05T16:36:49.082Z,35.33
2023-03-05T16:39:16.589Z,38.58
2023-03-05T16:41:44.241Z,36.90
2023-03-05T16:44:11.647Z,37.33
2023-03-05T16:46:41.456Z,39.22
2023-03-05T16:49:08.826Z,36.22
2023-03-05T16:51:36.120Z,35.53
2023-03-05T16:54:03.669Z,35.15
2023-03-05T16:56:30.716Z,38.05
2023-03-05T16:58:58.047Z,35.80
2023-03-05T17:01:25.764Z,38.97
2023-03-05T17:03:53.707Z,37.47
2023-03-05T17:06:22.598Z,39.85
2023-03-05T17:08:50.717Z,37.95
2023-03-05T17:11:17.849Z,41.88
2023-03-05T17:13:48.314Z,38.45
2023-03-05T17:16:16.989Z,38.10
2023-03-05T17:18:43.956Z,35.53
2023-03-05T17:21:11.657Z,35.47
2023-03-05T17:23:39.506Z,35.85
2023-03-05T17:26:13.986Z,35.42
2023-03-05T17:28:41.263Z,34.38
2023-03-05T17:31:08.656Z,41.28
2023-03-05T17:33:36.313Z,35.80
2023-03-05T17:36:03.622Z,38.15
2023-03-05T17:38:31.050Z,35.55
2023-03-05T17:40:57.956Z,35.10
2023-03-05T17:43:25.091Z,34.80
2023-03-05T17:45:52.388Z,35.17
2023-03-05T17:48:19.429Z,37.05
2023-03-05T17:50:46.523Z,57.33
2023-03-05T17:53:13.646Z,37.50
2023-03-05T17:55:40.742Z,35.35
2023-03-05T17:58:08.159Z,35.75
2023-03-05T18:00:35.861Z,34.75
2023-03-05T18:03:03.652Z,36.20
2023-03-05T18:05:30.638Z,38.85
2023-03-05T18:07:58.952Z,38.78
2023-03-05T18:10:26.499Z,38.42
2023-03-05T18:12:53.914Z,45.33
2023-03-05T18:15:21.856Z,43.50
2023-03-05T18:17:48.789Z,41.90
2023-03-05T18:20:36.211Z,40.72
2023-03-05T18:23:04.733Z,41.90
2023-03-05T18:25:32.135Z,41.00
2023-03-05T18:28:17.937Z,44.28
2023-03-05T18:30:45.874Z,40.78
2023-03-05T18:33:19.248Z,44.47
2023-03-05T18:35:46.735Z,45.47
2023-03-05T18:38:15.192Z,51.08
2023-03-05T18:40:42.882Z,48.28
2023-03-05T18:43:09.884Z,49.60
2023-03-05T18:45:37.487Z,48.65
2023-03-05T18:48:04.735Z,49.10
2023-03-05T18:50:34.286Z,49.50
2023-03-05T18:53:01.545Z,46.30
2023-03-05T18:55:29.586Z,46.05
2023-03-05T18:57:57.724Z,49.08
2023-03-05T19:00:29.111Z,45.40
2023-03-05T19:02:57.066Z,47.25
2023-03-05T19:05:26.178Z,48.97
2023-03-05T19:07:53.828Z,49.95
2023-03-05T19:10:22.701Z,48.38
2023-03-05T19:13:27.470Z,46.38
2023-03-05T19:16:07.225Z,49.50
2023-03-05T19:19:13.041Z,63.85
2023-03-05T19:21:40.512Z,54.50
2023-03-05T19:24:07.709Z,53.58
2023-03-05T19:26:34.963Z,48.60
2023-03-05T19:29:02.360Z,50.17
2023-03-05T19:31:29.544Z,41.03
2023-03-05T19:33:56.593Z,42.88
2023-03-05T19:36:23.709Z,42.08
2023-03-05T19:38:50.489Z,40.88
2023-03-05T19:41:19.436Z,49.40
2023-03-05T19:43:47.382Z,43.35
2023-03-05T19:46:14.850Z,43.22
2023-03-05T19:48:42.520Z,41.30
2023-03-05T19:51:11.541Z,45.13
2023-03-05T19:53:39.530Z,43.22
2023-03-05T19:56:07.217Z,44.33
2023-03-05T19:58:35.356Z,44.78
2023-03-05T20:01:09.339Z,47.15
2023-03-05T20:03:42.479Z,46.28
2023-03-05T20:06:13.348Z,45.75
2023-03-05T20:08:46.887Z,48.00
2023-03-05T20:11:37.624Z,47.60
2023-03-05T20:14:08.396Z,44.60
2023-03-05T20:16:40.954Z,44.60
2023-03-05T20:19:19.299Z,45.10
2023-03-05T20:21:48.428Z,57.75
2023-03-05T20:24:23.831Z,41.50
2023-03-05T20:26:56.191Z,45.83
2023-03-05T20:29:27.366Z,60.78
2023-03-05T20:31:57.278Z,43.40
2023-03-05T20:34:27.234Z,43.58
2023-03-05T20:36:58.394Z,42.78
2023-03-05T20:39:28.084Z,45.55
2023-03-05T20:42:00.714Z,45.05
2023-03-05T20:44:37.605Z,43.83
2023-03-05T20:47:46.146Z,41.78
2023-03-05T20:50:17.287Z,36.53
2023-03-05T20:52:49.749Z,33.88
2023-03-05T20:55:28.162Z,32.50
2023-03-05T20:58:14.841Z,31.27
2023-03-05T21:00:44.957Z,31.65
2023-03-05T21:03:12.828Z,30.85
2023-03-05T21:05:49.400Z,31.95
2023-03-05T21:08:21.722Z,30.85
2023-03-05T21:10:51.816Z,30.33
2023-03-05T21:13:24.840Z,35.92
2023-03-05T21:15:52.242Z,27.05
2023-03-05T21:18:22.720Z,23.80
2023-03-05T21:20:51.828Z,24.08
2023-03-05T21:23:32.329Z,30.65
2023-03-05T21:26:02.580Z,27.98
2023-03-05T21:28:33.629Z,27.73
2023-03-05T21:31:09.439Z,28.75
2023-03-05T21:33:45.281Z,28.60
2023-03-05T21:36:15.346Z,37.78
2023-03-05T21:39:01.839Z,35.90
2023-03-05T21:42:06.670Z,41.03
2023-03-05T21:44:41.842Z,39.97
2023-03-05T21:47:11.658Z,37.45
2023-03-05T21:49:46.174Z,47.00
2023-03-05T21:52:15.877Z,36.00
2023-03-05T21:54:45.103Z,35.72
2023-03-05T21:57:14.554Z,41.78
2023-03-05T21:59:45.585Z,26.10
2023-03-05T22:02:23.569Z,27.13
2023-03-05T22:05:06.399Z,25.83
2023-03-05T22:07:41.157Z,28.05
2023-03-05T22:10:16.828Z,28.48
2023-03-05T22:13:10.789Z,28.42
2023-03-05T22:15:52.409Z,25.38
2023-03-05T22:18:23.217Z,27.83
2023-03-05T22:20:50.478Z,24.95
2023-03-05T22:23:19.746Z,27.70
2023-03-05T22:25:57.710Z,38.92
2023-03-05T22:28:29.528Z,41.40
2023-03-05T22:30:56.712Z,41.97
2023-03-05T22:33:35.288Z,39.25
2023-03-05T22:36:11.211Z,41.58
2023-03-05T22:38:44.036Z,24.10
2023-03-05T22:41:17.159Z,44.65
2023-03-05T22:43:50.799Z,28.90
2023-03-05T22:46:28.373Z,29.55
2023-03-05T22:48:58.150Z,27.45
2023-03-05T22:51:30.596Z,28.77
2023-03-05T22:54:03.573Z,29.75
2023-03-05T22:56:37.358Z,28.45
2023-03-05T22:59:17.860Z,28.13
2023-03-05T23:01:50.828Z,28.70
2023-03-05T23:04:44.588Z,29.48
2023-03-05T23:07:17.073Z,28.65
2023-03-05T23:09:55.444Z,28.65
2023-03-05T23:12:31.036Z,27.67
2023-03-05T23:15:14.641Z,26.67
2023-03-05T23:17:44.540Z,26.48
2023-03-05T23:20:17.035Z,25.88
2023-03-05T23:22:45.681Z,24.92
2023-03-05T23:25:20.976Z,25.13
2023-03-05T23:27:53.282Z,26.73
2023-03-05T23:30:29.170Z,25.40
2023-03-05T23:33:00.275Z,25.52
2023-03-05T23:35:45.592Z,25.67
2023-03-05T23:38:19.589Z,39.08
2023-03-05T23:43:24.465Z,23.90
2023-03-05T23:45:57.827Z,23.05
2023-03-05T23:48:36.632Z,24.30
2023-03-05T23:51:10.363Z,25.67
2023-03-05T23:53:44.529Z,25.95
2023-03-05T23:56:11.876Z,26.25
2023-03-05T23:59:02.899Z,25.38
